Kosrae, Federated States of Micronesia
Current Conditions -  °F | °C
As of 1:50 AM on Friday 24 Oct 2014 (Local Time) from PTTP Reporting Station
Overcast Overcast  
Wind Chill: 77°   Ceiling: 13000
Heat Index: 78°   Visibility: 15mi
Dew Point: 77°   Wind: 3mph
Humidity: 98%   Direction: 100°E
Pressure: 29.82"   Gusts: NA
Location:  5.33°N, 163.03°E
Report Text: PTTP 231550Z 10003KT 15SM SCT018 OVC130 25/25 A2982 RMKSHRAB36E40 SLP098 T02510248
Loading
Personal Weather Stations






























Interactive Weather Map
Tropical Storm Tracking
New forecast layout! Learn more

10-Day Weather Forecast

Advertisements
Track Severe Weather on mobile